Flora Vista, New Mexico
Current Conditions -  °F | °C
As of 5:53 PM on Friday 28 Nov 2014 (Local Time) from KFMN Reporting Station
Clear Clear  
Wind Chill: 43°   Ceiling: Unl
Heat Index: 45°   Visibility: 10mi
Dew Point: 14°   Wind: 5mph
Humidity: 29%   Direction: 50°NE
Pressure: 30.06"   Gusts: NA
Location:  36.79°N, 108.04°W
Report Text: KFMN 290053Z 05004KT 10SM CLR 07/M10 A3006 RMK AO2 SLP188 T00721100
Loading
Personal Weather Stations






























Interactive Weather Map New forecast layout! Learn more

10-Day Weather Forecast

Advertisements
Track Severe Weather on mobile